sensor_id;sensor_type;location;lat;lon;timestamp;pressure;altitude;pressure_sealevel;temperature;humidity
58975;BME280;44751;52.236;5.178;2023-07-13T00:01:13;101191.34;;;18.11;100.00
58975;BME280;44751;52.236;5.178;2023-07-13T00:03:40;101197.44;;;18.06;100.00
58975;BME280;44751;52.236;5.178;2023-07-13T00:06:07;101202.31;;;18.29;100.00
58975;BME280;44751;52.236;5.178;2023-07-13T00:08:35;101199.09;;;18.07;100.00
58975;BME280;44751;52.236;5.178;2023-07-13T00:11:03;101208.78;;;18.10;100.00
58975;BME280;44751;52.236;5.178;2023-07-13T00:13:30;101202.91;;;18.06;100.00
58975;BME280;44751;52.236;5.178;2023-07-13T00:15:58;101202.28;;;18.04;100.00
58975;BME280;44751;52.236;5.178;2023-07-13T00:18:26;101205.59;;;18.13;100.00
58975;BME280;44751;52.236;5.178;2023-07-13T00:20:55;101201.81;;;18.14;100.00
58975;BME280;44751;52.236;5.178;2023-07-13T00:23:38;101193.88;;;18.12;100.00
58975;BME280;44751;52.236;5.178;2023-07-13T00:26:07;101205.22;;;18.09;100.00
58975;BME280;44751;52.236;5.178;2023-07-13T00:28:39;101200.44;;;17.98;100.00
58975;BME280;44751;52.236;5.178;2023-07-13T00:31:10;101198.91;;;18.09;100.00
58975;BME280;44751;52.236;5.178;2023-07-13T00:33:40;101196.59;;;18.05;100.00
58975;BME280;44751;52.236;5.178;2023-07-13T00:36:19;101199.66;;;18.23;100.00
58975;BME280;44751;52.236;5.178;2023-07-13T00:38:54;101198.97;;;17.95;100.00
58975;BME280;44751;52.236;5.178;2023-07-13T00:41:25;101206.69;;;18.05;100.00
58975;BME280;44751;52.236;5.178;2023-07-13T00:43:54;101198.78;;;17.97;100.00
58975;BME280;44751;52.236;5.178;2023-07-13T00:46:27;101200.28;;;17.92;100.00
58975;BME280;44751;52.236;5.178;2023-07-13T00:48:55;101202.31;;;17.97;100.00
58975;BME280;44751;52.236;5.178;2023-07-13T00:54:19;101186.16;;;17.96;100.00
58975;BME280;44751;52.236;5.178;2023-07-13T00:56:48;101195.06;;;17.84;100.00
58975;BME280;44751;52.236;5.178;2023-07-13T00:59:18;101199.13;;;17.68;100.00
58975;BME280;44751;52.236;5.178;2023-07-13T01:01:46;101205.69;;;17.60;100.00
58975;BME280;44751;52.236;5.178;2023-07-13T01:04:13;101210.91;;;17.68;100.00
58975;BME280;44751;52.236;5.178;2023-07-13T01:06:41;101196.81;;;17.72;100.00
58975;BME280;44751;52.236;5.178;2023-07-13T01:09:17;101205.25;;;17.63;100.00
58975;BME280;44751;52.236;5.178;2023-07-13T01:11:46;101216.41;;;17.55;100.00
58975;BME280;44751;52.236;5.178;2023-07-13T01:14:14;101211.63;;;17.50;100.00
58975;BME280;44751;52.236;5.178;2023-07-13T01:16:43;101202.13;;;17.60;100.00
58975;BME280;44751;52.236;5.178;2023-07-13T01:19:26;101207.38;;;17.61;100.00
58975;BME280;44751;52.236;5.178;2023-07-13T01:22:02;101201.13;;;17.47;100.00
58975;BME280;44751;52.236;5.178;2023-07-13T01:24:32;101207.22;;;17.49;100.00
58975;BME280;44751;52.236;5.178;2023-07-13T01:27:02;101204.97;;;17.33;100.00
58975;BME280;44751;52.236;5.178;2023-07-13T01:29:36;101206.66;;;17.34;100.00
58975;BME280;44751;52.236;5.178;2023-07-13T01:32:09;101204.28;;;17.44;100.00
58975;BME280;44751;52.236;5.178;2023-07-13T01:34:37;101207.22;;;17.42;100.00
58975;BME280;44751;52.236;5.178;2023-07-13T01:37:12;101217.94;;;17.44;100.00
58975;BME280;44751;52.236;5.178;2023-07-13T01:39:41;101214.84;;;17.34;100.00
58975;BME280;44751;52.236;5.178;2023-07-13T01:42:09;101213.19;;;17.26;100.00
58975;BME280;44751;52.236;5.178;2023-07-13T01:44:36;101216.28;;;17.36;100.00
58975;BME280;44751;52.236;5.178;2023-07-13T01:47:03;101211.75;;;17.16;100.00
58975;BME280;44751;52.236;5.178;2023-07-13T01:49:36;101214.91;;;17.07;100.00
58975;BME280;44751;52.236;5.178;2023-07-13T01:52:27;101218.72;;;17.06;100.00
58975;BME280;44751;52.236;5.178;2023-07-13T01:55:01;101221.19;;;17.00;100.00
58975;BME280;44751;52.236;5.178;2023-07-13T01:57:35;101217.22;;;17.03;100.00
58975;BME280;44751;52.236;5.178;2023-07-13T02:00:05;101218.91;;;17.11;100.00
58975;BME280;44751;52.236;5.178;2023-07-13T02:02:33;101221.63;;;17.11;100.00
58975;BME280;44751;52.236;5.178;2023-07-13T02:05:00;101221.63;;;17.04;100.00
58975;BME280;44751;52.236;5.178;2023-07-13T02:07:27;101218.91;;;16.97;100.00
58975;BME280;44751;52.236;5.178;2023-07-13T02:09:55;101216.16;;;17.04;100.00
58975;BME280;44751;52.236;5.178;2023-07-13T02:12:24;101223.50;;;17.03;100.00
58975;BME280;44751;52.236;5.178;2023-07-13T02:14:51;101228.75;;;17.05;100.00
58975;BME280;44751;52.236;5.178;2023-07-13T02:17:18;101224.13;;;17.12;100.00
58975;BME280;44751;52.236;5.178;2023-07-13T02:19:46;101230.63;;;16.98;100.00
58975;BME280;44751;52.236;5.178;2023-07-13T02:22:13;101230.22;;;17.01;100.00
58975;BME280;44751;52.236;5.178;2023-07-13T02:24:39;101232.75;;;16.89;100.00
58975;BME280;44751;52.236;5.178;2023-07-13T02:27:06;101240.72;;;16.84;100.00
58975;BME280;44751;52.236;5.178;2023-07-13T02:29:33;101231.91;;;16.88;100.00
58975;BME280;44751;52.236;5.178;2023-07-13T02:32:00;101235.91;;;16.86;100.00
58975;BME280;44751;52.236;5.178;2023-07-13T02:34:26;101238.19;;;16.82;100.00
58975;BME280;44751;52.236;5.178;2023-07-13T02:36:56;101220.81;;;16.76;100.00
58975;BME280;44751;52.236;5.178;2023-07-13T02:39:22;101238.19;;;16.82;100.00
58975;BME280;44751;52.236;5.178;2023-07-13T02:41:49;101237.16;;;16.90;100.00
58975;BME280;44751;52.236;5.178;2023-07-13T02:44:16;101243.00;;;16.94;100.00
58975;BME280;44751;52.236;5.178;2023-07-13T02:46:42;101245.34;;;16.83;100.00
58975;BME280;44751;52.236;5.178;2023-07-13T02:49:09;101240.94;;;16.89;100.00
58975;BME280;44751;52.236;5.178;2023-07-13T02:51:36;101249.31;;;16.87;100.00
58975;BME280;44751;52.236;5.178;2023-07-13T02:54:04;101248.69;;;17.06;100.00
58975;BME280;44751;52.236;5.178;2023-07-13T02:56:32;101241.13;;;16.94;100.00
58975;BME280;44751;52.236;5.178;2023-07-13T02:58:58;101239.88;;;16.97;100.00
58975;BME280;44751;52.236;5.178;2023-07-13T03:01:25;101246.38;;;17.09;100.00
58975;BME280;44751;52.236;5.178;2023-07-13T03:03:52;101233.34;;;16.98;100.00
58975;BME280;44751;52.236;5.178;2023-07-13T03:06:19;101239.44;;;17.00;100.00
58975;BME280;44751;52.236;5.178;2023-07-13T03:08:46;101238.00;;;16.97;100.00
58975;BME280;44751;52.236;5.178;2023-07-13T03:11:16;101243.00;;;16.94;100.00
58975;BME280;44751;52.236;5.178;2023-07-13T03:13:43;101246.78;;;16.93;100.00
58975;BME280;44751;52.236;5.178;2023-07-13T03:16:11;101237.97;;;16.90;100.00
58975;BME280;44751;52.236;5.178;2023-07-13T03:18:38;101243.00;;;17.00;100.00
58975;BME280;44751;52.236;5.178;2023-07-13T03:21:05;101252.84;;;16.95;100.00
58975;BME280;44751;52.236;5.178;2023-07-13T03:23:32;101244.91;;;17.07;100.00
58975;BME280;44751;52.236;5.178;2023-07-13T03:26:15;101242.38;;;17.12;100.00
58975;BME280;44751;52.236;5.178;2023-07-13T03:28:49;101238.59;;;16.99;100.00
58975;BME280;44751;52.236;5.178;2023-07-13T03:31:20;101247.84;;;17.05;100.00
58975;BME280;44751;52.236;5.178;2023-07-13T03:33:48;101243.63;;;17.09;100.00
58975;BME280;44751;52.236;5.178;2023-07-13T03:36:23;101245.50;;;17.09;100.00
58975;BME280;44751;52.236;5.178;2023-07-13T03:38:56;101251.19;;;17.14;100.00
58975;BME280;44751;52.236;5.178;2023-07-13T03:41:27;101252.88;;;17.08;100.00
58975;BME280;44751;52.236;5.178;2023-07-13T03:43:54;101250.56;;;17.12;100.00
58975;BME280;44751;52.236;5.178;2023-07-13T03:46:20;101262.47;;;17.24;100.00
58975;BME280;44751;52.236;5.178;2023-07-13T03:48:47;101254.28;;;17.31;100.00
58975;BME280;44751;52.236;5.178;2023-07-13T03:51:16;101258.94;;;17.24;100.00
58975;BME280;44751;52.236;5.178;2023-07-13T03:53:44;101249.69;;;17.25;100.00
58975;BME280;44751;52.236;5.178;2023-07-13T03:56:12;101266.44;;;17.28;100.00
58975;BME280;44751;52.236;5.178;2023-07-13T03:58:41;101270.22;;;17.34;100.00
58975;BME280;44751;52.236;5.178;2023-07-13T04:01:09;101266.06;;;17.18;100.00
58975;BME280;44751;52.236;5.178;2023-07-13T04:03:37;101273.81;;;17.01;100.00
58975;BME280;44751;52.236;5.178;2023-07-13T04:06:05;101273.22;;;17.12;100.00
58975;BME280;44751;52.236;5.178;2023-07-13T04:08:34;101282.84;;;16.95;100.00
58975;BME280;44751;52.236;5.178;2023-07-13T04:11:02;101278.22;;;17.02;100.00
58975;BME280;44751;52.236;5.178;2023-07-13T04:13:30;101286.22;;;16.90;100.00
58975;BME280;44751;52.236;5.178;2023-07-13T04:15:59;101281.16;;;16.94;100.00
58975;BME280;44751;52.236;5.178;2023-07-13T04:18:28;101274.47;;;16.76;100.00
58975;BME280;44751;52.236;5.178;2023-07-13T04:20:57;101286.66;;;16.67;100.00
58975;BME280;44751;52.236;5.178;2023-07-13T04:23:30;101275.31;;;16.83;100.00
58975;BME280;44751;52.236;5.178;2023-07-13T04:26:00;101281.59;;;16.77;100.00
58975;BME280;44751;52.236;5.178;2023-07-13T04:28:30;101283.28;;;16.85;100.00
58975;BME280;44751;52.236;5.178;2023-07-13T04:31:08;101283.06;;;16.80;100.00
58975;BME280;44751;52.236;5.178;2023-07-13T04:34:04;101295.00;;;16.78;100.00
58975;BME280;44751;52.236;5.178;2023-07-13T04:36:40;101287.88;;;16.91;100.00
58975;BME280;44751;52.236;5.178;2023-07-13T04:39:10;101295.84;;;16.86;100.00
58975;BME280;44751;52.236;5.178;2023-07-13T04:42:03;101295.84;;;16.93;100.00
58975;BME280;44751;52.236;5.178;2023-07-13T04:44:52;101296.06;;;16.91;100.00
58975;BME280;44751;52.236;5.178;2023-07-13T04:47:18;101304.25;;;16.84;100.00
58975;BME280;44751;52.236;5.178;2023-07-13T04:49:46;101288.50;;;16.86;100.00
58975;BME280;44751;52.236;5.178;2023-07-13T05:38:53;101344.41;;;17.70;100.00
58975;BME280;44751;52.236;5.178;2023-07-13T05:41:20;101341.41;;;17.85;100.00
58975;BME280;44751;52.236;5.178;2023-07-13T05:43:46;101348.09;;;17.89;100.00
58975;BME280;44751;52.236;5.178;2023-07-13T05:46:13;101343.81;;;18.07;100.00
58975;BME280;44751;52.236;5.178;2023-07-13T05:48:39;101335.56;;;17.68;100.00
58975;BME280;44751;52.236;5.178;2023-07-13T05:51:06;101349.94;;;17.96;100.00
58975;BME280;44751;52.236;5.178;2023-07-13T05:53:34;101340.50;;;17.91;100.00
58975;BME280;44751;52.236;5.178;2023-07-13T05:56:01;101348.28;;;17.94;100.00
58975;BME280;44751;52.236;5.178;2023-07-13T05:58:27;101354.34;;;18.03;100.00
58975;BME280;44751;52.236;5.178;2023-07-13T06:01:06;101356.41;;;18.15;100.00
58975;BME280;44751;52.236;5.178;2023-07-13T06:03:35;101357.63;;;18.26;100.00
58975;BME280;44751;52.236;5.178;2023-07-13T06:06:04;101360.59;;;18.56;100.00
58975;BME280;44751;52.236;5.178;2023-07-13T06:08:31;101362.00;;;18.91;100.00
58975;BME280;44751;52.236;5.178;2023-07-13T06:11:03;101358.88;;;18.62;100.00
58975;BME280;44751;52.236;5.178;2023-07-13T06:13:29;101373.81;;;18.60;100.00
58975;BME280;44751;52.236;5.178;2023-07-13T06:15:56;101373.00;;;18.52;100.00
58975;BME280;44751;52.236;5.178;2023-07-13T06:18:22;101374.50;;;18.48;100.00
58975;BME280;44751;52.236;5.178;2023-07-13T06:20:49;101376.06;;;18.69;100.00
58975;BME280;44751;52.236;5.178;2023-07-13T06:23:15;101375.66;;;18.66;100.00
58975;BME280;44751;52.236;5.178;2023-07-13T06:25:43;101366.47;;;18.53;100.00
58975;BME280;44751;52.236;5.178;2023-07-13T06:28:09;101380.56;;;18.57;100.00
58975;BME280;44751;52.236;5.178;2023-07-13T06:30:38;101375.00;;;18.70;100.00
58975;BME280;44751;52.236;5.178;2023-07-13T06:33:05;101367.66;;;19.22;100.00
58975;BME280;44751;52.236;5.178;2023-07-13T06:35:31;101376.34;;;18.87;100.00
58975;BME280;44751;52.236;5.178;2023-07-13T06:37:58;101378.41;;;18.91;100.00
58975;BME280;44751;52.236;5.178;2023-07-13T06:40:25;101373.34;;;18.95;100.00
58975;BME280;44751;52.236;5.178;2023-07-13T06:42:54;101361.44;;;19.15;100.00
58975;BME280;44751;52.236;5.178;2023-07-13T06:45:23;101376.63;;;19.29;100.00
58975;BME280;44751;52.236;5.178;2023-07-13T06:47:50;101386.56;;;19.86;100.00
58975;BME280;44751;52.236;5.178;2023-07-13T06:50:16;101392.50;;;20.21;100.00
58975;BME280;44751;52.236;5.178;2023-07-13T06:52:43;101379.34;;;19.92;100.00
58975;BME280;44751;52.236;5.178;2023-07-13T06:55:09;101384.50;;;19.63;100.00
58975;BME280;44751;52.236;5.178;2023-07-13T06:57:36;101389.94;;;19.26;100.00
58975;BME280;44751;52.236;5.178;2023-07-13T07:00:03;101391.59;;;18.69;100.00
58975;BME280;44751;52.236;5.178;2023-07-13T07:02:30;101408.63;;;18.39;100.00
58975;BME280;44751;52.236;5.178;2023-07-13T07:04:57;101406.03;;;17.98;100.00
58975;BME280;44751;52.236;5.178;2023-07-13T07:07:24;101409.91;;;17.50;100.00
58975;BME280;44751;52.236;5.178;2023-07-13T07:09:51;101393.38;;;17.11;100.00
58975;BME280;44751;52.236;5.178;2023-07-13T07:12:17;101408.00;;;16.96;100.00
58975;BME280;44751;52.236;5.178;2023-07-13T07:14:44;101413.19;;;16.57;100.00
58975;BME280;44751;52.236;5.178;2023-07-13T07:17:10;101431.03;;;16.67;100.00
58975;BME280;44751;52.236;5.178;2023-07-13T07:19:40;101436.25;;;16.68;100.00
58975;BME280;44751;52.236;5.178;2023-07-13T07:22:07;101449.16;;;16.39;100.00
58975;BME280;44751;52.236;5.178;2023-07-13T07:24:34;101435.75;;;16.37;100.00
58975;BME280;44751;52.236;5.178;2023-07-13T07:27:00;101427.84;;;16.49;100.00
58975;BME280;44751;52.236;5.178;2023-07-13T07:29:30;101426.97;;;16.35;100.00
58975;BME280;44751;52.236;5.178;2023-07-13T07:31:56;101426.06;;;16.21;100.00
58975;BME280;44751;52.236;5.178;2023-07-13T07:34:24;101424.81;;;16.24;100.00
58975;BME280;44751;52.236;5.178;2023-07-13T07:36:53;101421.09;;;16.38;100.00
58975;BME280;44751;52.236;5.178;2023-07-13T07:39:20;101419.69;;;16.63;100.00
58975;BME280;44751;52.236;5.178;2023-07-13T07:41:52;101421.22;;;16.99;100.00
58975;BME280;44751;52.236;5.178;2023-07-13T07:45:00;101427.16;;;17.10;100.00
58975;BME280;44751;52.236;5.178;2023-07-13T07:47:49;101426.28;;;17.43;100.00
58975;BME280;44751;52.236;5.178;2023-07-13T07:50:23;101428.34;;;17.81;100.00
58975;BME280;44751;52.236;5.178;2023-07-13T07:56:17;101428.81;;;17.45;100.00
58975;BME280;44751;52.236;5.178;2023-07-13T07:58:50;101423.59;;;17.29;100.00
58975;BME280;44751;52.236;5.178;2023-07-13T08:04:28;101431.78;;;18.23;100.00
58975;BME280;44751;52.236;5.178;2023-07-13T08:07:09;101427.19;;;18.62;100.00
58975;BME280;44751;52.236;5.178;2023-07-13T08:09:36;101428.47;;;19.24;100.00
58975;BME280;44751;52.236;5.178;2023-07-13T08:12:27;101415.09;;;19.34;100.00
58975;BME280;44751;52.236;5.178;2023-07-13T08:15:13;101415.34;;;19.33;100.00
58975;BME280;44751;52.236;5.178;2023-07-13T08:17:40;101414.69;;;19.56;100.00
58975;BME280;44751;52.236;5.178;2023-07-13T08:20:07;101418.19;;;19.82;100.00
58975;BME280;44751;52.236;5.178;2023-07-13T08:22:34;101424.59;;;19.32;100.00
58975;BME280;44751;52.236;5.178;2023-07-13T08:25:10;101425.56;;;18.87;100.00
58975;BME280;44751;52.236;5.178;2023-07-13T08:27:53;101435.06;;;18.77;100.00
58975;BME280;44751;52.236;5.178;2023-07-13T08:31:09;101422.06;;;18.40;100.00
58975;BME280;44751;52.236;5.178;2023-07-13T08:34:09;101422.03;;;18.47;100.00
58975;BME280;44751;52.236;5.178;2023-07-13T08:36:58;101430.00;;;18.42;100.00
58975;BME280;44751;52.236;5.178;2023-07-13T08:39:37;101456.50;;;18.41;100.00
58975;BME280;44751;52.236;5.178;2023-07-13T08:46:09;101443.69;;;17.28;100.00
58975;BME280;44751;52.236;5.178;2023-07-13T08:54:03;101443.09;;;17.53;100.00
58975;BME280;44751;52.236;5.178;2023-07-13T08:56:34;101440.59;;;18.70;100.00
58975;BME280;44751;52.236;5.178;2023-07-13T08:59:11;101431.75;;;19.07;100.00
58975;BME280;44751;52.236;5.178;2023-07-13T09:02:00;101442.25;;;19.80;100.00
58975;BME280;44751;52.236;5.178;2023-07-13T09:04:48;101445.59;;;21.00;100.00
58975;BME280;44751;52.236;5.178;2023-07-13T09:10:27;101460.72;;;19.41;100.00
58975;BME280;44751;52.236;5.178;2023-07-13T09:15:38;101442.44;;;19.41;100.00
58975;BME280;44751;52.236;5.178;2023-07-13T09:18:35;101445.94;;;18.91;100.00
58975;BME280;44751;52.236;5.178;2023-07-13T09:21:10;101459.47;;;20.06;100.00
58975;BME280;44751;52.236;5.178;2023-07-13T09:23:39;101454.44;;;21.02;100.00
58975;BME280;44751;52.236;5.178;2023-07-13T09:26:21;101457.69;;;21.23;100.00
58975;BME280;44751;52.236;5.178;2023-07-13T09:28:51;101460.69;;;21.45;100.00
58975;BME280;44751;52.236;5.178;2023-07-13T09:31:24;101470.75;;;21.99;100.00
58975;BME280;44751;52.236;5.178;2023-07-13T09:33:55;101474.19;;;21.83;100.00
58975;BME280;44751;52.236;5.178;2023-07-13T09:44:15;101468.44;;;22.49;100.00
58975;BME280;44751;52.236;5.178;2023-07-13T09:46:52;101462.72;;;21.26;100.00
58975;BME280;44751;52.236;5.178;2023-07-13T09:49:26;101466.91;;;21.88;100.00
58975;BME280;44751;52.236;5.178;2023-07-13T09:52:03;101465.41;;;21.02;100.00
58975;BME280;44751;52.236;5.178;2023-07-13T09:54:34;101460.28;;;20.44;100.00
58975;BME280;44751;52.236;5.178;2023-07-13T09:57:03;101474.47;;;20.22;100.00
58975;BME280;44751;52.236;5.178;2023-07-13T09:59:33;101479.97;;;19.97;100.00
58975;BME280;44751;52.236;5.178;2023-07-13T10:02:00;101478.94;;;19.72;100.00
58975;BME280;44751;52.236;5.178;2023-07-13T10:04:33;101480.41;;;21.54;100.00
58975;BME280;44751;52.236;5.178;2023-07-13T10:07:11;101482.69;;;22.46;100.00
58975;BME280;44751;52.236;5.178;2023-07-13T10:09:39;101480.09;;;22.68;100.00
58975;BME280;44751;52.236;5.178;2023-07-13T10:12:15;101477.44;;;21.79;100.00
58975;BME280;44751;52.236;5.178;2023-07-13T10:14:42;101474.50;;;21.26;100.00
58975;BME280;44751;52.236;5.178;2023-07-13T10:17:13;101489.09;;;23.39;100.00
58975;BME280;44751;52.236;5.178;2023-07-13T10:19:42;101482.72;;;22.34;100.00
58975;BME280;44751;52.236;5.178;2023-07-13T10:22:36;101488.84;;;21.40;100.00
58975;BME280;44751;52.236;5.178;2023-07-13T10:25:14;101489.84;;;20.42;100.00
58975;BME280;44751;52.236;5.178;2023-07-13T10:27:42;101501.81;;;20.60;100.00
58975;BME280;44751;52.236;5.178;2023-07-13T10:32:39;101485.41;;;21.33;100.00
58975;BME280;44751;52.236;5.178;2023-07-13T10:35:11;101498.81;;;21.89;100.00
58975;BME280;44751;52.236;5.178;2023-07-13T10:38:05;101499.59;;;21.30;100.00
58975;BME280;44751;52.236;5.178;2023-07-13T10:40:38;101499.06;;;21.21;100.00
58975;BME280;44751;52.236;5.178;2023-07-13T10:43:17;101503.16;;;20.88;100.00
58975;BME280;44751;52.236;5.178;2023-07-13T10:45:46;101506.34;;;20.35;100.00
58975;BME280;44751;52.236;5.178;2023-07-13T10:48:15;101500.56;;;20.25;100.00
58975;BME280;44751;52.236;5.178;2023-07-13T10:50:45;101514.69;;;20.59;100.00
58975;BME280;44751;52.236;5.178;2023-07-13T10:58:23;101519.03;;;20.48;100.00
58975;BME280;44751;52.236;5.178;2023-07-13T11:11:36;101530.16;;;21.46;100.00
58975;BME280;44751;52.236;5.178;2023-07-13T11:14:13;101526.28;;;21.77;100.00
58975;BME280;44751;52.236;5.178;2023-07-13T11:16:51;101540.09;;;21.71;100.00
58975;BME280;44751;52.236;5.178;2023-07-13T11:19:37;101545.63;;;22.72;100.00
58975;BME280;44751;52.236;5.178;2023-07-13T11:25:00;101532.34;;;22.80;100.00
58975;BME280;44751;52.236;5.178;2023-07-13T11:27:42;101539.16;;;23.24;100.00
58975;BME280;44751;52.236;5.178;2023-07-13T11:33:12;101536.63;;;23.34;100.00
58975;BME280;44751;52.236;5.178;2023-07-13T11:36:02;101541.94;;;22.66;100.00
58975;BME280;44751;52.236;5.178;2023-07-13T11:38:38;101540.13;;;22.18;100.00
58975;BME280;44751;52.236;5.178;2023-07-13T11:41:10;101547.06;;;21.85;100.00
58975;BME280;44751;52.236;5.178;2023-07-13T11:43:41;101547.72;;;22.40;100.00
58975;BME280;44751;52.236;5.178;2023-07-13T11:46:20;101548.06;;;22.68;100.00
58975;BME280;44751;52.236;5.178;2023-07-13T11:48:48;101545.31;;;22.56;100.00
58975;BME280;44751;52.236;5.178;2023-07-13T11:51:22;101544.34;;;23.20;100.00
58975;BME280;44751;52.236;5.178;2023-07-13T11:53:51;101546.53;;;23.18;100.00
58975;BME280;44751;52.236;5.178;2023-07-13T11:56:18;101546.22;;;22.74;100.00
58975;BME280;44751;52.236;5.178;2023-07-13T11:58:51;101557.97;;;22.98;100.00
58975;BME280;44751;52.236;5.178;2023-07-13T12:01:24;101557.25;;;23.66;100.00
58975;BME280;44751;52.236;5.178;2023-07-13T12:03:54;101558.69;;;23.52;100.00
58975;BME280;44751;52.236;5.178;2023-07-13T12:06:26;101553.16;;;23.52;100.00
58975;BME280;44751;52.236;5.178;2023-07-13T12:08:56;101540.88;;;23.59;100.00
58975;BME280;44751;52.236;5.178;2023-07-13T12:11:22;101554.41;;;23.78;100.00
58975;BME280;44751;52.236;5.178;2023-07-13T12:13:49;101546.00;;;23.21;100.00
58975;BME280;44751;52.236;5.178;2023-07-13T12:16:29;101554.44;;;22.86;100.00
58975;BME280;44751;52.236;5.178;2023-07-13T12:18:59;101550.66;;;22.75;100.00
58975;BME280;44751;52.236;5.178;2023-07-13T12:23:56;101546.88;;;23.56;100.00
58975;BME280;44751;52.236;5.178;2023-07-13T12:26:23;101557.00;;;23.68;100.00
58975;BME280;44751;52.236;5.178;2023-07-13T12:28:54;101545.59;;;23.13;100.00
58975;BME280;44751;52.236;5.178;2023-07-13T12:31:44;101552.31;;;23.68;100.00
58975;BME280;44751;52.236;5.178;2023-07-13T12:34:15;101550.56;;;23.79;100.00
58975;BME280;44751;52.236;5.178;2023-07-13T12:36:53;101562.00;;;23.54;100.00
58975;BME280;44751;52.236;5.178;2023-07-13T12:39:25;101554.50;;;23.49;100.00
58975;BME280;44751;52.236;5.178;2023-07-13T12:42:14;101551.72;;;23.66;100.00
58975;BME280;44751;52.236;5.178;2023-07-13T12:44:45;101545.97;;;23.85;100.00
58975;BME280;44751;52.236;5.178;2023-07-13T12:47:14;101546.56;;;23.36;100.00
58975;BME280;44751;52.236;5.178;2023-07-13T12:49:49;101548.41;;;23.47;100.00
58975;BME280;44751;52.236;5.178;2023-07-13T12:52:21;101556.59;;;23.30;100.00
58975;BME280;44751;52.236;5.178;2023-07-13T12:54:58;101554.69;;;23.30;100.00
58975;BME280;44751;52.236;5.178;2023-07-13T12:57:29;101557.59;;;23.53;100.00
58975;BME280;44751;52.236;5.178;2023-07-13T12:59:55;101562.06;;;23.76;100.00
58975;BME280;44751;52.236;5.178;2023-07-13T13:02:29;101556.50;;;23.88;100.00
58975;BME280;44751;52.236;5.178;2023-07-13T13:04:57;101559.53;;;24.26;100.00
58975;BME280;44751;52.236;5.178;2023-07-13T13:07:24;101564.16;;;24.43;100.00
58975;BME280;44751;52.236;5.178;2023-07-13T13:09:52;101561.06;;;24.84;100.00
58975;BME280;44751;52.236;5.178;2023-07-13T13:12:20;101561.66;;;24.63;100.00
58975;BME280;44751;52.236;5.178;2023-07-13T13:14:47;101568.72;;;24.32;100.00
58975;BME280;44751;52.236;5.178;2023-07-13T13:17:30;101579.16;;;24.74;100.00
58975;BME280;44751;52.236;5.178;2023-07-13T13:19:57;101572.91;;;25.07;100.00
58975;BME280;44751;52.236;5.178;2023-07-13T13:22:24;101571.50;;;25.04;100.00
58975;BME280;44751;52.236;5.178;2023-07-13T13:24:53;101579.88;;;24.87;100.00
58975;BME280;44751;52.236;5.178;2023-07-13T13:27:21;101567.66;;;23.98;100.00
58975;BME280;44751;52.236;5.178;2023-07-13T13:29:51;101585.69;;;24.23;100.00
58975;BME280;44751;52.236;5.178;2023-07-13T13:32:18;101578.78;;;23.69;100.00
58975;BME280;44751;52.236;5.178;2023-07-13T13:34:45;101598.69;;;23.42;100.00
58975;BME280;44751;52.236;5.178;2023-07-13T13:37:20;101589.16;;;24.14;100.00
58975;BME280;44751;52.236;5.178;2023-07-13T13:39:48;101586.72;;;23.19;100.00
58975;BME280;44751;52.236;5.178;2023-07-13T13:42:16;101594.59;;;22.99;100.00
58975;BME280;44751;52.236;5.178;2023-07-13T13:44:42;101592.22;;;22.90;100.00
58975;BME280;44751;52.236;5.178;2023-07-13T13:47:35;101595.81;;;22.91;100.00
58975;BME280;44751;52.236;5.178;2023-07-13T13:50:15;101602.56;;;24.10;100.00
58975;BME280;44751;52.236;5.178;2023-07-13T13:52:43;101589.72;;;23.64;100.00
58975;BME280;44751;52.236;5.178;2023-07-13T13:55:20;101607.31;;;23.17;100.00
58975;BME280;44751;52.236;5.178;2023-07-13T13:57:48;101596.47;;;23.27;100.00
58975;BME280;44751;52.236;5.178;2023-07-13T14:00:16;101592.31;;;22.95;100.00
58975;BME280;44751;52.236;5.178;2023-07-13T14:02:46;101589.63;;;23.76;100.00
58975;BME280;44751;52.236;5.178;2023-07-13T14:05:17;101589.94;;;23.45;100.00
58975;BME280;44751;52.236;5.178;2023-07-13T14:07:46;101592.47;;;23.47;100.00
58975;BME280;44751;52.236;5.178;2023-07-13T14:10:15;101588.31;;;23.62;100.00
58975;BME280;44751;52.236;5.178;2023-07-13T14:12:45;101584.88;;;23.71;100.00
58975;BME280;44751;52.236;5.178;2023-07-13T14:15:25;101586.94;;;24.16;100.00
58975;BME280;44751;52.236;5.178;2023-07-13T14:17:53;101594.47;;;23.86;100.00
58975;BME280;44751;52.236;5.178;2023-07-13T14:20:22;101587.97;;;23.75;100.00
58975;BME280;44751;52.236;5.178;2023-07-13T14:22:52;101586.47;;;24.41;100.00
58975;BME280;44751;52.236;5.178;2023-07-13T14:25:20;101591.47;;;23.70;100.00
58975;BME280;44751;52.236;5.178;2023-07-13T14:27:50;101586.88;;;23.42;100.00
58975;BME280;44751;52.236;5.178;2023-07-13T14:30:22;101592.28;;;23.54;100.00
58975;BME280;44751;52.236;5.178;2023-07-13T14:32:48;101591.81;;;23.57;100.00
58975;BME280;44751;52.236;5.178;2023-07-13T14:35:20;101596.31;;;23.80;100.00
58975;BME280;44751;52.236;5.178;2023-07-13T14:37:49;101594.13;;;23.48;100.00
58975;BME280;44751;52.236;5.178;2023-07-13T14:40:30;101611.06;;;23.40;100.00
58975;BME280;44751;52.236;5.178;2023-07-13T14:42:58;101615.44;;;22.94;100.00
58975;BME280;44751;52.236;5.178;2023-07-13T14:45:25;101606.63;;;23.09;100.00
58975;BME280;44751;52.236;5.178;2023-07-13T14:47:52;101603.41;;;23.01;100.00